Time;durP1;ratioP1;P1;durP2;ratioP2;P2;SDS_P1;SDS_P2;PMS_P1;PMS_P2;Temp;Humidity;BMP_temperature;BMP_pressure;BME280_temperature;BME280_humidity;BME280_pressure;Samples;Min_cycle;Max_cycle;Signal;HPM_P1;HPM_P2
2023/03/08 00:00:39;;;;;;;;;;;-0.40;99.90;;;;;;8374780;28;19963;-67
2023/03/08 00:04:41;;;;;;;;;;;-0.40;99.90;;;;;;8379842;28;20454;-67
2023/03/08 00:08:42;;;;;;;;;;;-0.40;99.90;;;;;;8384962;28;19925;-67
2023/03/08 00:12:44;;;;;;;;;;;-0.40;99.90;;;;;;8391989;28;19978;-67
2023/03/08 00:16:46;;;;;;;;;;;-0.40;99.90;;;;;;8370693;28;19924;-68
2023/03/08 00:20:56;;;;;;;;;;;-0.40;99.90;;;;;;8378031;28;19925;-67
2023/03/08 00:24:58;;;;;;;;;;;-0.40;99.90;;;;;;8380037;28;19939;-67
2023/03/08 00:29:00;;;;;;;;;;;-0.40;99.90;;;;;;8385820;28;19931;-67
2023/03/08 00:33:01;;;;;;;;;;;-0.40;99.90;;;;;;8380801;28;19932;-67
2023/03/08 00:37:03;;;;;;;;;;;-0.40;99.90;;;;;;8387663;28;20011;-67
2023/03/08 00:41:04;;;;;;;;;;;-0.40;99.90;;;;;;8374822;28;19928;-67
2023/03/08 00:45:06;;;;;;;;;;;-0.50;99.90;;;;;;8387329;28;19929;-67
2023/03/08 01:04:20;;;;;;;;;;;-0.70;99.90;;;;;;8380884;28;19919;-69
2023/03/08 01:08:22;;;;;;;;;;;-0.70;99.90;;;;;;8390092;28;19929;-69
2023/03/08 01:12:24;;;;;;;;;;;-0.70;99.90;;;;;;8396610;28;19942;-69
2023/03/08 01:16:27;;;;;;;;;;;-0.80;99.90;;;;;;8384772;28;20368;-69
2023/03/08 01:20:29;;;;;;;;;;;-0.80;99.90;;;;;;8369089;28;19931;-67
2023/03/08 01:24:30;;;;;;;;;;;-0.80;99.90;;;;;;8385748;28;19964;-67
2023/03/08 01:28:33;;;;;;;;;;;-0.80;99.90;;;;;;8379383;28;19974;-67
2023/03/08 01:32:34;;;;;;;;;;;-0.90;99.90;;;;;;8391807;28;20019;-66
2023/03/08 01:36:36;;;;;;;;;;;-0.90;99.90;;;;;;8383467;28;19962;-67
2023/03/08 01:40:37;;;;;;;;;;;-0.90;99.90;;;;;;8384145;28;20341;-67
2023/03/08 01:44:51;;;;;;;;;;;-0.90;99.90;;;;;;8381264;28;19939;-67
2023/03/08 01:49:02;;;;;;;;;;;-0.90;99.90;;;;;;8377841;28;19999;-67
2023/03/08 01:53:04;;;;;;;;;;;-1.00;99.90;;;;;;8386236;28;20392;-67
2023/03/08 01:57:07;;;;;;;;;;;-1.00;99.90;;;;;;8377170;28;19940;-67
2023/03/08 02:01:09;;;;;;;;;;;-1.00;99.90;;;;;;8383323;28;20287;-67
2023/03/08 02:05:11;;;;;;;;;;;-1.00;99.90;;;;;;8369896;28;19925;-67
2023/03/08 02:09:12;;;;;;;;;;;-1.00;99.90;;;;;;8369134;28;19931;-67
2023/03/08 02:13:14;;;;;;;;;;;-1.00;99.90;;;;;;8388354;28;19983;-67
2023/03/08 02:17:16;;;;;;;;;;;-1.00;99.90;;;;;;8383703;28;19928;-67
2023/03/08 02:21:18;;;;;;;;;;;-1.00;99.90;;;;;;8384001;28;19925;-67
2023/03/08 02:25:21;;;;;;;;;;;-1.00;99.90;;;;;;8379517;28;20371;-67
2023/03/08 02:29:22;;;;;;;;;;;-1.00;99.90;;;;;;8380047;28;20296;-67
2023/03/08 02:33:24;;;;;;;;;;;-1.00;99.90;;;;;;8363897;28;20388;-68
2023/03/08 02:37:26;;;;;;;;;;;-1.00;99.90;;;;;;8378956;28;19932;-67
2023/03/08 02:41:46;;;;;;;;;;;-1.10;99.90;;;;;;8357913;28;19981;-67
2023/03/08 02:45:47;;;;;;;;;;;-1.00;99.90;;;;;;8387297;28;20407;-67
2023/03/08 02:49:49;;;;;;;;;;;-1.00;99.90;;;;;;8384737;28;19931;-67
2023/03/08 02:53:51;;;;;;;;;;;-1.00;99.90;;;;;;8379448;28;19924;-67
2023/03/08 02:57:52;;;;;;;;;;;-1.00;99.90;;;;;;8384243;28;19925;-67
2023/03/08 03:01:56;;;;;;;;;;;-1.00;99.90;;;;;;8376551;28;20027;-67
2023/03/08 03:05:57;;;;;;;;;;;-1.00;99.90;;;;;;8383966;28;19931;-67
2023/03/08 03:09:59;;;;;;;;;;;-1.00;99.90;;;;;;8378702;28;19928;-66
2023/03/08 03:24:25;;;;;;;;;;;-0.80;99.90;;;;;;8374582;28;19955;-69
2023/03/08 03:28:26;;;;;;;;;;;-0.70;99.90;;;;;;8381359;28;19929;-69
2023/03/08 03:32:28;;;;;;;;;;;-0.70;99.90;;;;;;8379964;28;19924;-69
2023/03/08 03:36:30;;;;;;;;;;;-0.60;99.90;;;;;;8383282;28;19971;-69
2023/03/08 03:40:31;;;;;;;;;;;-0.70;99.90;;;;;;8374721;28;19929;-68
2023/03/08 03:44:33;;;;;;;;;;;-0.60;99.90;;;;;;8378244;28;19959;-69
2023/03/08 03:48:35;;;;;;;;;;;-0.60;99.90;;;;;;8377815;28;19930;-69
2023/03/08 03:52:36;;;;;;;;;;;-0.50;99.90;;;;;;8381744;28;19928;-69
2023/03/08 03:56:38;;;;;;;;;;;-0.50;99.90;;;;;;8383406;28;19931;-69
2023/03/08 04:00:40;;;;;;;;;;;-0.40;99.90;;;;;;8374844;28;20036;-69
2023/03/08 04:04:41;;;;;;;;;;;-0.40;99.90;;;;;;8377214;28;19938;-69
2023/03/08 04:08:43;;;;;;;;;;;-0.30;99.90;;;;;;8380456;28;19931;-69
2023/03/08 04:12:48;;;;;;;;;;;-0.20;99.90;;;;;;8383709;28;19983;-69
2023/03/08 04:16:50;;;;;;;;;;;-0.20;99.90;;;;;;8380283;28;19939;-69
2023/03/08 04:20:51;;;;;;;;;;;-0.10;99.90;;;;;;8376300;28;19928;-69
2023/03/08 04:24:53;;;;;;;;;;;-0.10;99.90;;;;;;8377224;28;19974;-69
2023/03/08 04:28:55;;;;;;;;;;;-0.10;99.90;;;;;;8384334;28;19928;-67
2023/03/08 04:32:56;;;;;;;;;;;0.00;99.90;;;;;;8366627;28;20015;-67
2023/03/08 04:36:58;;;;;;;;;;;0.00;99.90;;;;;;8364957;28;20345;-67
2023/03/08 04:41:11;;;;;;;;;;;0.10;99.90;;;;;;8377255;28;19924;-67
2023/03/08 04:45:14;;;;;;;;;;;0.10;99.90;;;;;;8365219;28;19929;-67
2023/03/08 04:49:15;;;;;;;;;;;0.10;99.90;;;;;;8384130;28;20284;-67
2023/03/08 04:53:17;;;;;;;;;;;0.10;99.90;;;;;;8393645;28;19992;-67
2023/03/08 04:57:18;;;;;;;;;;;0.20;99.90;;;;;;8379369;28;19931;-67
2023/03/08 05:01:22;;;;;;;;;;;0.20;99.90;;;;;;8386118;28;20327;-67
2023/03/08 05:05:23;;;;;;;;;;;0.20;99.90;;;;;;8386272;28;19924;-67
2023/03/08 05:09:25;;;;;;;;;;;0.20;99.90;;;;;;8383736;28;19934;-67
2023/03/08 05:13:28;;;;;;;;;;;0.20;99.90;;;;;;8372479;28;20486;-67
2023/03/08 05:17:30;;;;;;;;;;;0.20;99.90;;;;;;8387660;28;19932;-67
2023/03/08 05:21:32;;;;;;;;;;;0.20;99.90;;;;;;8366813;28;20339;-67
2023/03/08 05:25:33;;;;;;;;;;;0.20;99.90;;;;;;8388813;28;19976;-67
2023/03/08 05:29:36;;;;;;;;;;;0.20;99.90;;;;;;8399791;28;19933;-67
2023/03/08 05:33:38;;;;;;;;;;;0.20;99.90;;;;;;8369056;28;19924;-67
2023/03/08 05:37:39;;;;;;;;;;;0.20;99.90;;;;;;8398206;28;20011;-68
2023/03/08 05:41:41;;;;;;;;;;;0.20;99.90;;;;;;8385279;28;19932;-67
2023/03/08 05:45:43;;;;;;;;;;;0.30;99.90;;;;;;8386523;28;20321;-67
2023/03/08 05:49:45;;;;;;;;;;;0.30;99.90;;;;;;8387156;28;19932;-67
2023/03/08 05:53:46;;;;;;;;;;;0.30;99.90;;;;;;8383359;28;20291;-69
2023/03/08 05:57:48;;;;;;;;;;;0.30;99.90;;;;;;8377005;28;19925;-69
2023/03/08 06:01:50;;;;;;;;;;;0.30;99.90;;;;;;8396597;28;19932;-69
2023/03/08 06:05:51;;;;;;;;;;;0.30;99.90;;;;;;8383874;28;19928;-69
2023/03/08 06:09:54;;;;;;;;;;;0.30;99.90;;;;;;8374084;28;20015;-69
2023/03/08 06:13:56;;;;;;;;;;;0.30;99.90;;;;;;8394321;28;20002;-69
2023/03/08 06:17:57;;;;;;;;;;;0.30;99.90;;;;;;8373101;28;19974;-69
2023/03/08 06:21:59;;;;;;;;;;;0.30;99.90;;;;;;8371017;28;19967;-69
2023/03/08 06:26:01;;;;;;;;;;;0.30;99.90;;;;;;8382186;28;20008;-69
2023/03/08 06:30:02;;;;;;;;;;;0.30;99.90;;;;;;8388901;28;20311;-69
2023/03/08 06:34:04;;;;;;;;;;;0.30;99.90;;;;;;8385743;28;20970;-70
2023/03/08 06:38:05;;;;;;;;;;;0.30;99.90;;;;;;8389192;28;19964;-69
2023/03/08 06:42:07;;;;;;;;;;;0.30;99.90;;;;;;8377976;28;19924;-69
2023/03/08 06:46:11;;;;;;;;;;;0.40;99.90;;;;;;8390110;28;19935;-69
2023/03/08 06:50:12;;;;;;;;;;;0.40;99.90;;;;;;8390116;28;20388;-69
2023/03/08 06:54:16;;;;;;;;;;;0.40;99.90;;;;;;8389534;28;19924;-67
2023/03/08 06:58:18;;;;;;;;;;;0.40;99.90;;;;;;8368698;28;20015;-67
2023/03/08 07:02:19;;;;;;;;;;;0.50;99.90;;;;;;8389838;28;19924;-67
2023/03/08 07:06:21;;;;;;;;;;;0.50;99.90;;;;;;8388633;28;19925;-67
2023/03/08 07:10:23;;;;;;;;;;;0.50;99.90;;;;;;8387095;28;19929;-67
2023/03/08 07:14:24;;;;;;;;;;;0.50;99.90;;;;;;8371696;28;19931;-67
2023/03/08 07:18:26;;;;;;;;;;;0.50;99.90;;;;;;8388358;28;19932;-67
2023/03/08 07:22:28;;;;;;;;;;;0.60;99.90;;;;;;8387400;28;19924;-67
2023/03/08 07:31:35;;;;;;;;;;;0.70;99.90;;;;;;8384952;28;20310;-67
2023/03/08 07:35:36;;;;;;;;;;;0.70;99.90;;;;;;8383095;28;19924;-67
2023/03/08 07:39:40;;;;;;;;;;;0.70;99.90;;;;;;8380420;28;19924;-67
2023/03/08 07:43:42;;;;;;;;;;;0.80;99.90;;;;;;8381595;28;19925;-66
2023/03/08 07:47:43;;;;;;;;;;;0.80;99.90;;;;;;8387360;28;20007;-67
2023/03/08 07:51:47;;;;;;;;;;;0.80;99.90;;;;;;8388551;28;19930;-67
2023/03/08 07:55:49;;;;;;;;;;;0.90;99.90;;;;;;8389895;28;19935;-68
2023/03/08 07:59:50;;;;;;;;;;;0.90;99.90;;;;;;8384459;28;19925;-67
2023/03/08 08:03:54;;;;;;;;;;;1.00;99.90;;;;;;8381599;28;19924;-67
2023/03/08 08:07:56;;;;;;;;;;;1.00;99.90;;;;;;8386106;28;20331;-67
2023/03/08 08:11:57;;;;;;;;;;;1.10;99.90;;;;;;8382301;28;20288;-67
2023/03/08 08:16:00;;;;;;;;;;;1.10;99.90;;;;;;8387773;28;20399;-67
2023/03/08 08:20:03;;;;;;;;;;;1.20;99.90;;;;;;8386320;28;19928;-66
2023/03/08 08:24:05;;;;;;;;;;;1.20;99.90;;;;;;8385413;28;19924;-67
2023/03/08 08:28:07;;;;;;;;;;;1.30;99.90;;;;;;8394863;28;19924;-66
2023/03/08 08:32:09;;;;;;;;;;;1.30;99.90;;;;;;8394649;28;20411;-67
2023/03/08 08:36:14;;;;;;;;;;;1.40;99.90;;;;;;8392839;28;20073;-67
2023/03/08 08:40:16;;;;;;;;;;;1.50;99.90;;;;;;8388083;28;19932;-67
2023/03/08 08:44:18;;;;;;;;;;;1.60;99.90;;;;;;8392079;28;19968;-67
2023/03/08 08:48:19;;;;;;;;;;;1.60;99.90;;;;;;8393766;28;20377;-67
2023/03/08 08:52:21;;;;;;;;;;;1.70;99.90;;;;;;8390520;28;20288;-67
2023/03/08 08:56:24;;;;;;;;;;;1.80;99.90;;;;;;8392972;28;20326;-67
2023/03/08 09:15:46;;;;;;;;;;;2.10;99.90;;;;;;8390934;28;19922;-67
2023/03/08 09:19:48;;;;;;;;;;;2.10;99.90;;;;;;8388325;28;19939;-67
2023/03/08 09:23:50;;;;;;;;;;;2.20;99.90;;;;;;8387367;28;20365;-66
2023/03/08 09:27:51;;;;;;;;;;;2.20;99.90;;;;;;8388320;28;19925;-67
2023/03/08 09:31:53;;;;;;;;;;;2.30;99.90;;;;;;8391252;28;20082;-67
2023/03/08 09:35:55;;;;;;;;;;;2.30;99.90;;;;;;8386123;28;19924;-67
2023/03/08 09:39:57;;;;;;;;;;;2.40;99.90;;;;;;8384439;28;19929;-67
2023/03/08 09:44:17;;;;;;;;;;;2.40;99.90;;;;;;8365852;28;19932;-67
2023/03/08 09:48:25;;;;;;;;;;;2.50;99.90;;;;;;8392681;28;19935;-67
2023/03/08 09:52:42;;;;;;;;;;;2.70;99.90;;;;;;8390778;28;19925;-67
2023/03/08 09:56:51;;;;;;;;;;;2.90;99.90;;;;;;8395033;28;19935;-67
2023/03/08 10:00:54;;;;;;;;;;;3.20;99.90;;;;;;8381691;28;19931;-67
2023/03/08 10:05:05;;;;;;;;;;;3.60;99.90;;;;;;8372390;28;19924;-67
2023/03/08 10:09:14;;;;;;;;;;;4.00;99.90;;;;;;8388083;28;19935;-67
2023/03/08 10:13:27;;;;;;;;;;;4.20;99.90;;;;;;8384822;28;20395;-67
2023/03/08 10:17:37;;;;;;;;;;;4.30;99.90;;;;;;8390911;28;19928;-67
2023/03/08 10:21:40;;;;;;;;;;;4.20;99.90;;;;;;8387757;28;20283;-67
2023/03/08 10:25:42;;;;;;;;;;;4.00;99.90;;;;;;8391100;28;19969;-67
2023/03/08 10:29:51;;;;;;;;;;;4.10;99.90;;;;;;8392046;28;19964;-67
2023/03/08 10:33:56;;;;;;;;;;;4.10;99.90;;;;;;8391906;28;19931;-67
2023/03/08 10:37:58;;;;;;;;;;;4.30;99.90;;;;;;8376949;28;20015;-67
2023/03/08 10:42:04;;;;;;;;;;;4.30;99.90;;;;;;8378625;28;19928;-67
2023/03/08 10:46:13;;;;;;;;;;;4.30;99.90;;;;;;8389858;28;19928;-67
2023/03/08 10:50:15;;;;;;;;;;;4.30;99.90;;;;;;8386287;28;20383;-67
2023/03/08 10:54:17;;;;;;;;;;;4.40;99.90;;;;;;8386744;28;19928;-67
2023/03/08 11:08:23;;;;;;;;;;;4.70;99.90;;;;;;8383420;28;19928;-67
2023/03/08 11:12:25;;;;;;;;;;;4.70;99.90;;;;;;8383375;28;19963;-67
2023/03/08 11:16:30;;;;;;;;;;;4.60;99.90;;;;;;8386530;28;19932;-67
2023/03/08 11:20:35;;;;;;;;;;;4.50;99.90;;;;;;8382599;28;20304;-67
2023/03/08 11:24:55;;;;;;;;;;;4.50;99.90;;;;;;8382041;28;19928;-68
2023/03/08 11:29:16;;;;;;;;;;;4.50;99.90;;;;;;8384482;28;19925;-67
2023/03/08 11:33:18;;;;;;;;;;;4.50;99.90;;;;;;8384068;28;20319;-67
2023/03/08 11:37:24;;;;;;;;;;;4.60;99.90;;;;;;8388532;28;19928;-67
2023/03/08 11:41:29;;;;;;;;;;;4.80;99.90;;;;;;8357462;28;19925;-67
2023/03/08 11:45:30;;;;;;;;;;;4.80;99.90;;;;;;8355373;28;19939;-67
2023/03/08 12:04:46;;;;;;;;;;;4.80;99.90;;;;;;8364203;28;19926;-66
2023/03/08 12:08:55;;;;;;;;;;;4.90;99.90;;;;;;8365288;28;19932;-67
2023/03/08 12:13:15;;;;;;;;;;;4.90;99.90;;;;;;8359375;28;19929;-67
2023/03/08 12:17:23;;;;;;;;;;;5.00;99.90;;;;;;8362420;28;19960;-67
2023/03/08 12:21:25;;;;;;;;;;;5.10;99.90;;;;;;8363907;28;19925;-67
2023/03/08 12:25:29;;;;;;;;;;;5.40;99.90;;;;;;8362578;28;19979;-67
2023/03/08 12:29:33;;;;;;;;;;;5.90;99.90;;;;;;8360130;28;19963;-67
2023/03/08 12:33:35;;;;;;;;;;;6.20;99.90;;;;;;8360409;28;20522;-67
2023/03/08 12:37:38;;;;;;;;;;;6.10;99.90;;;;;;8361252;28;19932;-66
2023/03/08 12:41:39;;;;;;;;;;;5.90;99.90;;;;;;8356521;28;19925;-67
2023/03/08 12:45:45;;;;;;;;;;;5.70;99.90;;;;;;8357484;28;20564;-67
2023/03/08 12:49:55;;;;;;;;;;;5.50;99.90;;;;;;8358534;28;20028;-67
2023/03/08 12:54:01;;;;;;;;;;;5.30;99.90;;;;;;8357816;28;19933;-68
2023/03/08 12:58:03;;;;;;;;;;;5.10;99.90;;;;;;8353109;28;19939;-67
2023/03/08 13:02:21;;;;;;;;;;;5.10;99.90;;;;;;8360558;28;19929;-67
2023/03/08 13:06:24;;;;;;;;;;;5.00;99.90;;;;;;8359212;28;19931;-67
2023/03/08 13:10:29;;;;;;;;;;;4.90;99.90;;;;;;8359011;28;19970;-67
2023/03/08 13:14:38;;;;;;;;;;;4.90;99.90;;;;;;8362820;28;19967;-67
2023/03/08 13:18:45;;;;;;;;;;;4.90;99.90;;;;;;8343717;28;19935;-67
2023/03/08 13:22:57;;;;;;;;;;;4.80;99.90;;;;;;8358734;28;19968;-67
2023/03/08 13:27:10;;;;;;;;;;;4.70;99.90;;;;;;8375712;28;19928;-67
2023/03/08 13:31:18;;;;;;;;;;;4.70;99.90;;;;;;8360032;28;19978;-67
2023/03/08 13:35:20;;;;;;;;;;;4.60;99.90;;;;;;8374439;28;19931;-67
2023/03/08 13:39:23;;;;;;;;;;;4.60;99.90;;;;;;8360013;28;19932;-67
2023/03/08 13:43:32;;;;;;;;;;;4.70;99.90;;;;;;8356481;28;19996;-67
2023/03/08 13:47:34;;;;;;;;;;;4.80;99.90;;;;;;8358941;28;20391;-66
2023/03/08 13:51:36;;;;;;;;;;;4.90;99.90;;;;;;8359963;28;20016;-67
2023/03/08 13:55:40;;;;;;;;;;;5.00;99.90;;;;;;8355528;28;19940;-67
2023/03/08 13:59:49;;;;;;;;;;;5.00;99.90;;;;;;8358646;28;19925;-67
2023/03/08 14:03:53;;;;;;;;;;;5.00;99.90;;;;;;8359707;28;19924;-67
2023/03/08 14:07:56;;;;;;;;;;;5.00;99.90;;;;;;8364484;28;19939;-67
2023/03/08 14:11:59;;;;;;;;;;;4.90;99.90;;;;;;8354406;28;19990;-66
2023/03/08 14:16:02;;;;;;;;;;;4.90;99.90;;;;;;8354646;28;20310;-67
2023/03/08 14:20:15;;;;;;;;;;;4.90;99.90;;;;;;8352396;28;19925;-67
2023/03/08 14:24:19;;;;;;;;;;;4.90;99.90;;;;;;8356375;28;19929;-67
2023/03/08 14:28:32;;;;;;;;;;;4.80;99.90;;;;;;8358784;28;20601;-67
2023/03/08 14:32:34;;;;;;;;;;;4.80;99.90;;;;;;8370720;28;19929;-67
2023/03/08 14:36:36;;;;;;;;;;;4.80;99.90;;;;;;8356524;28;19924;-67
2023/03/08 14:40:44;;;;;;;;;;;4.70;99.90;;;;;;8356661;28;19937;-67
2023/03/08 14:44:53;;;;;;;;;;;4.70;99.90;;;;;;8355435;28;19928;-67
2023/03/08 14:49:00;;;;;;;;;;;4.70;99.90;;;;;;8358040;28;19928;-67
2023/03/08 14:53:02;;;;;;;;;;;4.60;99.90;;;;;;8353916;28;19928;-67
2023/03/08 14:57:18;;;;;;;;;;;4.60;99.90;;;;;;8349585;28;19929;-67
2023/03/08 15:01:30;;;;;;;;;;;4.60;99.90;;;;;;8359179;28;19933;-67
2023/03/08 15:05:32;;;;;;;;;;;4.60;99.90;;;;;;8355504;28;20346;-67
2023/03/08 15:09:33;;;;;;;;;;;4.60;99.90;;;;;;8354222;28;20111;-67
2023/03/08 15:13:35;;;;;;;;;;;4.60;99.90;;;;;;8350907;28;20312;-67
2023/03/08 15:17:37;;;;;;;;;;;4.60;99.90;;;;;;8352326;28;19925;-67
2023/03/08 15:21:38;;;;;;;;;;;4.50;99.90;;;;;;8364342;28;24422;-67
2023/03/08 15:25:40;;;;;;;;;;;4.60;99.90;;;;;;8352414;28;20292;-67
2023/03/08 15:29:42;;;;;;;;;;;4.50;99.90;;;;;;8352102;28;20625;-67
2023/03/08 15:33:43;;;;;;;;;;;4.50;99.90;;;;;;8352440;28;20153;-67
2023/03/08 15:37:45;;;;;;;;;;;4.50;99.90;;;;;;8366864;28;19928;-67
2023/03/08 15:41:47;;;;;;;;;;;4.40;99.90;;;;;;8353768;28;19932;-67
2023/03/08 15:45:49;;;;;;;;;;;4.40;99.90;;;;;;8356823;28;19925;-67
2023/03/08 15:49:50;;;;;;;;;;;4.40;99.90;;;;;;8376189;28;19933;-67
2023/03/08 15:53:52;;;;;;;;;;;4.40;99.90;;;;;;8354474;28;19924;-67
2023/03/08 15:57:54;;;;;;;;;;;4.30;99.90;;;;;;8354818;28;19924;-67
2023/03/08 16:01:55;;;;;;;;;;;4.20;99.90;;;;;;8356738;28;19935;-67
2023/03/08 16:05:58;;;;;;;;;;;4.20;99.90;;;;;;8338789;28;19925;-67
2023/03/08 16:10:00;;;;;;;;;;;4.20;99.90;;;;;;8352301;28;20237;-67
2023/03/08 16:14:01;;;;;;;;;;;4.10;99.90;;;;;;8355046;28;19928;-67
2023/03/08 16:18:03;;;;;;;;;;;4.00;99.90;;;;;;8356163;28;19975;-67
2023/03/08 16:22:05;;;;;;;;;;;4.00;99.90;;;;;;8353843;28;19982;-67
2023/03/08 16:26:08;;;;;;;;;;;3.90;99.90;;;;;;8336999;28;19967;-68
2023/03/08 16:30:17;;;;;;;;;;;3.80;99.90;;;;;;8339757;28;20373;-67
2023/03/08 16:34:18;;;;;;;;;;;3.80;99.90;;;;;;8355664;28;19963;-67
2023/03/08 16:38:21;;;;;;;;;;;3.70;99.90;;;;;;8354535;28;20331;-67
2023/03/08 16:42:23;;;;;;;;;;;3.70;99.90;;;;;;8356854;28;20311;-67
2023/03/08 16:46:24;;;;;;;;;;;3.70;99.90;;;;;;8360930;28;20407;-67
2023/03/08 16:50:26;;;;;;;;;;;3.70;99.90;;;;;;8351949;28;19936;-66
2023/03/08 16:54:28;;;;;;;;;;;3.60;99.90;;;;;;8346015;28;19968;-67
2023/03/08 16:58:29;;;;;;;;;;;3.50;99.90;;;;;;8362707;28;19939;-67
2023/03/08 17:02:31;;;;;;;;;;;3.50;99.90;;;;;;8360446;28;19939;-67
2023/03/08 17:06:33;;;;;;;;;;;3.50;99.90;;;;;;8358922;28;20339;-67
2023/03/08 17:10:36;;;;;;;;;;;3.40;99.90;;;;;;8358367;28;19925;-67
2023/03/08 17:14:38;;;;;;;;;;;3.40;99.90;;;;;;8359445;28;19929;-67
2023/03/08 17:18:40;;;;;;;;;;;3.30;99.90;;;;;;8363036;28;19925;-67
2023/03/08 17:22:42;;;;;;;;;;;3.30;99.90;;;;;;8360007;28;20032;-67
2023/03/08 17:26:44;;;;;;;;;;;3.30;99.90;;;;;;8359158;28;19925;-67
2023/03/08 17:30:46;;;;;;;;;;;3.30;99.90;;;;;;8358166;28;19931;-67
2023/03/08 17:34:48;;;;;;;;;;;3.30;99.90;;;;;;8358218;28;19978;-67
2023/03/08 17:38:51;;;;;;;;;;;3.30;99.90;;;;;;8344070;28;20263;-67
2023/03/08 17:42:52;;;;;;;;;;;3.30;99.90;;;;;;8364083;28;19967;-67
2023/03/08 17:46:54;;;;;;;;;;;3.20;99.90;;;;;;8366421;28;19928;-67
2023/03/08 17:51:03;;;;;;;;;;;3.20;99.90;;;;;;8366470;28;19939;-67
2023/03/08 17:55:05;;;;;;;;;;;3.20;99.90;;;;;;8356889;28;19963;-67
2023/03/08 17:59:07;;;;;;;;;;;3.20;99.90;;;;;;8355408;28;19924;-67
2023/03/08 18:03:08;;;;;;;;;;;3.20;99.90;;;;;;8359438;28;19975;-67
2023/03/08 18:07:10;;;;;;;;;;;3.20;99.90;;;;;;8358483;28;19925;-68
2023/03/08 18:11:12;;;;;;;;;;;3.20;99.90;;;;;;8342256;28;20017;-67
2023/03/08 18:15:13;;;;;;;;;;;3.20;99.90;;;;;;8348794;28;20430;-67
2023/03/08 18:19:15;;;;;;;;;;;3.20;99.90;;;;;;8364834;28;19932;-67
2023/03/08 18:23:17;;;;;;;;;;;3.20;99.90;;;;;;8333426;28;19924;-67
2023/03/08 18:27:18;;;;;;;;;;;3.20;99.90;;;;;;8348711;28;20418;-67
2023/03/08 18:31:24;;;;;;;;;;;3.10;99.90;;;;;;8350754;28;19975;-67
2023/03/08 18:35:27;;;;;;;;;;;3.10;99.90;;;;;;8356798;28;19932;-67
2023/03/08 18:39:28;;;;;;;;;;;3.10;99.90;;;;;;8367530;28;20403;-66
2023/03/08 18:43:31;;;;;;;;;;;3.10;99.90;;;;;;8340141;28;19929;-67
2023/03/08 18:47:33;;;;;;;;;;;3.10;99.90;;;;;;8354412;28;20396;-67
2023/03/08 18:51:36;;;;;;;;;;;3.00;99.90;;;;;;8339983;28;20304;-67
2023/03/08 18:55:38;;;;;;;;;;;3.00;99.90;;;;;;8351062;28;20601;-67
2023/03/08 18:59:39;;;;;;;;;;;2.90;99.90;;;;;;8352735;28;20035;-67
2023/03/08 19:03:42;;;;;;;;;;;3.00;99.90;;;;;;8369029;28;19948;-67
2023/03/08 19:07:45;;;;;;;;;;;3.00;99.90;;;;;;8355143;28;19933;-67
2023/03/08 19:11:47;;;;;;;;;;;2.90;99.90;;;;;;8352167;28;19929;-66
2023/03/08 19:15:49;;;;;;;;;;;2.90;99.90;;;;;;8355965;28;19932;-67
2023/03/08 19:19:50;;;;;;;;;;;2.90;99.90;;;;;;8354166;28;19936;-67
2023/03/08 19:23:52;;;;;;;;;;;3.00;99.90;;;;;;8353929;28;19925;-67
2023/03/08 19:27:53;;;;;;;;;;;2.90;99.90;;;;;;8369473;28;19968;-66
2023/03/08 19:32:00;;;;;;;;;;;2.90;99.90;;;;;;8356321;28;19947;-67
2023/03/08 19:36:01;;;;;;;;;;;2.90;99.90;;;;;;8355830;28;19929;-67
2023/03/08 19:40:06;;;;;;;;;;;2.90;99.90;;;;;;8353392;28;19932;-67
2023/03/08 19:44:08;;;;;;;;;;;2.90;99.90;;;;;;8370588;28;19929;-67
2023/03/08 19:48:10;;;;;;;;;;;2.90;99.90;;;;;;8339106;28;19925;-67
2023/03/08 19:52:12;;;;;;;;;;;2.90;99.90;;;;;;8354359;28;19933;-67
2023/03/08 19:56:16;;;;;;;;;;;2.90;99.90;;;;;;8354838;28;19978;-68
2023/03/08 20:00:17;;;;;;;;;;;2.90;99.90;;;;;;8361897;28;19928;-67
2023/03/08 20:04:19;;;;;;;;;;;2.90;99.90;;;;;;8367702;28;20368;-67
2023/03/08 20:08:21;;;;;;;;;;;2.90;99.90;;;;;;8369390;28;19931;-67
2023/03/08 20:12:23;;;;;;;;;;;2.90;99.90;;;;;;8356706;28;19933;-67
2023/03/08 20:16:25;;;;;;;;;;;2.90;99.90;;;;;;8352436;28;20415;-67
2023/03/08 20:20:26;;;;;;;;;;;2.80;99.90;;;;;;8359965;28;19979;-67
2023/03/08 20:24:28;;;;;;;;;;;2.80;99.90;;;;;;8359633;28;19932;-67
2023/03/08 20:28:30;;;;;;;;;;;2.70;99.90;;;;;;8361126;28;20506;-67
2023/03/08 20:32:31;;;;;;;;;;;2.60;99.90;;;;;;8376681;28;19939;-67
2023/03/08 20:36:33;;;;;;;;;;;2.60;99.90;;;;;;8358562;28;20408;-67
2023/03/08 20:40:35;;;;;;;;;;;2.60;99.90;;;;;;8352138;28;19936;-67
2023/03/08 20:44:39;;;;;;;;;;;2.60;99.90;;;;;;8360512;28;20481;-67
2023/03/08 20:49:02;;;;;;;;;;;2.50;99.90;;;;;;8358964;28;19998;-66
2023/03/08 20:53:04;;;;;;;;;;;2.50;99.90;;;;;;8362258;28;19939;-67
2023/03/08 20:57:06;;;;;;;;;;;2.50;99.90;;;;;;8358903;28;19929;-67
2023/03/08 21:01:12;;;;;;;;;;;2.50;99.90;;;;;;8359260;28;19925;-67
2023/03/08 21:05:14;;;;;;;;;;;2.40;99.90;;;;;;8362487;28;19932;-67
2023/03/08 21:09:15;;;;;;;;;;;2.40;99.90;;;;;;8359786;28;20355;-67
2023/03/08 21:13:17;;;;;;;;;;;2.40;99.90;;;;;;8358443;28;19936;-67
2023/03/08 21:17:20;;;;;;;;;;;2.40;99.90;;;;;;8360723;28;19928;-67
2023/03/08 21:21:26;;;;;;;;;;;2.40;99.90;;;;;;8355793;28;19975;-67
2023/03/08 21:25:28;;;;;;;;;;;2.40;99.90;;;;;;8344226;28;19990;-67
2023/03/08 21:29:30;;;;;;;;;;;2.40;99.90;;;;;;8359076;28;19928;-67
2023/03/08 21:33:31;;;;;;;;;;;2.40;99.90;;;;;;8362314;28;19929;-67
2023/03/08 21:37:33;;;;;;;;;;;2.40;99.90;;;;;;8350731;28;20389;-67
2023/03/08 21:41:36;;;;;;;;;;;2.40;99.90;;;;;;8359348;28;19931;-67
2023/03/08 21:56:04;;;;;;;;;;;2.30;99.90;;;;;;8357161;28;20407;-67
2023/03/08 22:00:07;;;;;;;;;;;2.30;99.90;;;;;;8340052;28;19968;-67
2023/03/08 22:04:08;;;;;;;;;;;2.30;99.90;;;;;;8376588;28;19924;-67
2023/03/08 22:08:10;;;;;;;;;;;2.20;99.90;;;;;;8387822;28;19928;-67
2023/03/08 22:12:13;;;;;;;;;;;2.20;99.90;;;;;;8388740;28;19924;-67
2023/03/08 22:16:17;;;;;;;;;;;2.20;99.90;;;;;;8388088;28;21806;-67
2023/03/08 22:20:19;;;;;;;;;;;2.20;99.90;;;;;;8383245;28;19951;-67
2023/03/08 22:24:20;;;;;;;;;;;2.20;99.90;;;;;;8384461;28;19990;-67
2023/03/08 22:28:22;;;;;;;;;;;2.20;99.90;;;;;;8385374;28;19931;-67
2023/03/08 22:32:24;;;;;;;;;;;2.20;99.90;;;;;;8383080;28;19931;-67
2023/03/08 22:36:26;;;;;;;;;;;2.10;99.90;;;;;;8389323;28;19924;-67
2023/03/08 22:40:27;;;;;;;;;;;2.10;99.90;;;;;;8378155;28;19928;-67
2023/03/08 22:44:29;;;;;;;;;;;2.20;99.90;;;;;;8383383;28;19940;-67
2023/03/08 22:48:31;;;;;;;;;;;2.20;99.90;;;;;;8385308;28;19983;-67
2023/03/08 22:52:32;;;;;;;;;;;2.30;99.90;;;;;;8381642;28;19931;-67
2023/03/08 22:56:34;;;;;;;;;;;2.30;99.90;;;;;;8381664;28;20419;-67
2023/03/08 23:00:36;;;;;;;;;;;2.30;99.90;;;;;;8371752;28;19940;-67
2023/03/08 23:04:38;;;;;;;;;;;2.30;99.90;;;;;;8377976;28;20381;-67
2023/03/08 23:08:39;;;;;;;;;;;2.30;99.90;;;;;;8384168;28;19925;-68
2023/03/08 23:12:41;;;;;;;;;;;2.30;99.90;;;;;;8382166;28;19971;-67
2023/03/08 23:16:44;;;;;;;;;;;2.20;99.90;;;;;;8369469;28;19929;-67
2023/03/08 23:20:45;;;;;;;;;;;2.20;99.90;;;;;;8368670;28;19924;-67
2023/03/08 23:24:47;;;;;;;;;;;2.20;99.90;;;;;;8384641;28;19960;-67
2023/03/08 23:28:49;;;;;;;;;;;2.20;99.90;;;;;;8361508;28;19924;-67
2023/03/08 23:32:51;;;;;;;;;;;2.10;99.90;;;;;;8382663;28;19931;-67
2023/03/08 23:36:53;;;;;;;;;;;2.10;99.90;;;;;;8367743;28;19986;-67
2023/03/08 23:40:54;;;;;;;;;;;2.10;99.90;;;;;;8377842;28;19924;-67
2023/03/08 23:44:56;;;;;;;;;;;2.10;99.90;;;;;;8383022;28;19978;-67
2023/03/08 23:48:58;;;;;;;;;;;2.10;99.90;;;;;;8385840;28;19928;-67
2023/03/08 23:53:00;;;;;;;;;;;2.10;99.90;;;;;;8363196;28;19939;-67
2023/03/08 23:57:02;;;;;;;;;;;2.10;99.90;;;;;;8383192;28;19931;-67
